createdAt,value
2023-02-27T00:00:19.737Z,3.95
2023-02-27T00:05:21.458Z,3.90
2023-02-27T00:10:23.014Z,3.55
2023-02-27T00:15:24.722Z,4.18
2023-02-27T00:20:29.683Z,3.20
2023-02-27T00:25:32.162Z,3.97
2023-02-27T00:30:33.762Z,4.03
2023-02-27T00:35:35.364Z,4.30
2023-02-27T00:40:36.919Z,3.97
2023-02-27T00:45:38.386Z,4.13
2023-02-27T00:50:39.883Z,3.88
2023-02-27T00:55:41.415Z,4.32
2023-02-27T01:00:43.533Z,5.25
2023-02-27T01:05:45.012Z,3.67
2023-02-27T01:10:46.833Z,3.70
2023-02-27T01:15:48.319Z,3.92
2023-02-27T01:20:56.305Z,4.75
2023-02-27T01:25:57.883Z,4.10
2023-02-27T01:30:59.435Z,3.97
2023-02-27T01:36:01.046Z,3.92
2023-02-27T01:41:02.912Z,3.83
2023-02-27T01:46:07.105Z,4.10
2023-02-27T01:51:16.666Z,4.30
2023-02-27T01:56:21.017Z,4.07
2023-02-27T02:01:23.196Z,3.53
2023-02-27T02:06:24.779Z,4.57
2023-02-27T02:11:27.445Z,4.95
2023-02-27T02:17:10.974Z,4.28
2023-02-27T02:22:39.701Z,3.88
2023-02-27T02:27:50.923Z,3.88
2023-02-27T02:33:20.290Z,4.43
2023-02-27T02:38:50.826Z,4.20
2023-02-27T02:49:22.909Z,3.40
2023-02-27T02:54:47.979Z,4.25
2023-02-27T02:59:57.723Z,4.43
2023-02-27T03:05:05.447Z,3.50
2023-02-27T03:10:15.837Z,3.42
2023-02-27T03:15:36.601Z,4.43
2023-02-27T03:20:42.572Z,3.17
2023-02-27T03:25:47.705Z,3.63
2023-02-27T03:31:00.999Z,3.33
2023-02-27T03:36:15.611Z,3.25
2023-02-27T03:41:29.707Z,5.70
2023-02-27T03:46:45.936Z,3.53
2023-02-27T03:51:47.495Z,4.28
2023-02-27T03:57:00.606Z,4.07
2023-02-27T04:02:03.885Z,3.55
2023-02-27T04:07:15.636Z,3.15
2023-02-27T04:12:49.398Z,3.47
2023-02-27T04:17:57.884Z,3.63
2023-02-27T04:23:06.324Z,3.10
2023-02-27T04:28:22.198Z,3.70
2023-02-27T04:33:26.702Z,4.03
2023-02-27T04:38:52.731Z,3.25
2023-02-27T04:43:55.633Z,4.15
2023-02-27T04:49:08.462Z,3.90
2023-02-27T04:54:14.502Z,4.57
2023-02-27T04:59:24.873Z,3.65
2023-02-27T05:04:29.805Z,4.13
2023-02-27T05:09:46.980Z,4.47
2023-02-27T05:14:58.489Z,4.03
2023-02-27T05:20:01.253Z,4.25
2023-02-27T05:25:08.765Z,3.88
2023-02-27T05:30:51.845Z,4.50
2023-02-27T05:36:10.231Z,3.67
2023-02-27T05:41:20.342Z,4.57
2023-02-27T05:46:27.447Z,4.10
2023-02-27T05:51:35.340Z,3.65
2023-02-27T05:56:38.315Z,3.63
2023-02-27T06:01:40.457Z,4.30
2023-02-27T06:06:42.055Z,4.75
2023-02-27T06:11:43.638Z,4.35
2023-02-27T06:16:45.185Z,4.20
2023-02-27T06:21:46.678Z,4.30
2023-02-27T06:26:48.125Z,5.40
2023-02-27T06:31:49.657Z,5.30
2023-02-27T06:36:51.205Z,4.72
2023-02-27T06:41:52.702Z,5.10
2023-02-27T06:46:54.161Z,4.22
2023-02-27T06:51:55.622Z,4.47
2023-02-27T06:56:57.270Z,4.93
2023-02-27T07:01:58.851Z,4.53
2023-02-27T07:07:34.631Z,4.22
2023-02-27T07:12:21.752Z,4.80
2023-02-27T07:17:23.239Z,4.30
2023-02-27T07:22:24.771Z,4.93
2023-02-27T07:27:26.301Z,4.43
2023-02-27T07:32:28.168Z,5.03
2023-02-27T07:37:29.740Z,4.95
2023-02-27T07:42:31.369Z,5.45
2023-02-27T07:47:32.848Z,5.18
2023-02-27T07:52:34.313Z,4.20
2023-02-27T07:57:35.789Z,5.05
2023-02-27T08:02:37.720Z,4.95
2023-02-27T08:07:39.239Z,3.60
2023-02-27T08:12:40.697Z,5.10
2023-02-27T08:17:42.171Z,4.60
2023-02-27T08:22:43.611Z,4.03
2023-02-27T08:27:45.109Z,5.72
2023-02-27T08:32:46.584Z,4.75
2023-02-27T08:37:48.118Z,5.60
2023-02-27T08:42:51.277Z,5.75
2023-02-27T08:47:52.984Z,4.68
2023-02-27T08:52:54.460Z,4.60
2023-02-27T08:57:55.944Z,4.20
2023-02-27T09:02:57.469Z,6.22
2023-02-27T09:07:58.982Z,4.80
2023-02-27T09:13:01.318Z,4.40
2023-02-27T09:18:02.876Z,5.85
2023-02-27T09:23:04.504Z,6.07
2023-02-27T09:28:05.977Z,5.38
2023-02-27T09:33:10.221Z,4.80
2023-02-27T09:38:11.681Z,4.70
2023-02-27T09:43:24.061Z,4.60
2023-02-27T09:48:39.194Z,5.55
2023-02-27T09:53:47.516Z,5.55
2023-02-27T09:59:01.167Z,5.00
2023-02-27T10:04:12.720Z,5.90
2023-02-27T10:09:29.938Z,5.20
2023-02-27T10:14:39.529Z,5.15
2023-02-27T10:19:45.092Z,5.38
2023-02-27T10:24:56.917Z,6.00
2023-02-27T10:30:23.526Z,4.88
2023-02-27T10:35:36.957Z,5.20
2023-02-27T10:40:41.159Z,4.88
2023-02-27T10:45:42.635Z,5.57
2023-02-27T10:50:46.750Z,5.88
2023-02-27T10:56:00.261Z,4.88
2023-02-27T11:01:07.724Z,4.93
2023-02-27T11:06:21.531Z,5.32
2023-02-27T11:11:28.504Z,6.60
2023-02-27T11:16:49.491Z,6.18
2023-02-27T11:22:01.772Z,5.72
2023-02-27T11:27:05.211Z,5.07
2023-02-27T11:32:13.950Z,6.53
2023-02-27T11:37:26.883Z,5.93
2023-02-27T11:42:34.544Z,4.57
2023-02-27T11:47:40.311Z,4.80
2023-02-27T11:52:44.770Z,4.75
2023-02-27T11:57:50.330Z,4.68
2023-02-27T12:03:00.934Z,6.28
2023-02-27T12:08:27.839Z,5.95
2023-02-27T12:13:33.534Z,4.45
2023-02-27T12:18:37.866Z,5.15
2023-02-27T12:23:46.447Z,4.82
2023-02-27T12:29:01.417Z,9.82
2023-02-27T12:34:08.900Z,4.68
2023-02-27T12:39:24.823Z,4.43
2023-02-27T12:44:53.776Z,4.57
2023-02-27T12:50:11.655Z,5.93
2023-02-27T12:55:26.023Z,4.90
2023-02-27T13:00:43.030Z,4.35
2023-02-27T13:05:48.031Z,6.03
2023-02-27T13:11:01.452Z,4.78
2023-02-27T13:16:02.847Z,4.70
2023-02-27T13:21:23.188Z,4.38
2023-02-27T13:26:38.394Z,5.30
2023-02-27T13:31:52.791Z,7.03
2023-02-27T13:37:12.592Z,5.35
2023-02-27T13:42:26.283Z,5.88
2023-02-27T13:47:30.715Z,5.75
2023-02-27T13:52:34.840Z,5.93
2023-02-27T13:57:37.921Z,6.22
2023-02-27T14:02:59.909Z,7.18
2023-02-27T14:08:16.404Z,6.43
2023-02-27T14:13:45.671Z,5.68
2023-02-27T14:18:54.755Z,6.95
2023-02-27T14:23:56.414Z,6.57
2023-02-27T14:28:57.888Z,9.95
2023-02-27T14:34:02.088Z,5.90
2023-02-27T14:39:04.191Z,5.68
2023-02-27T14:44:05.733Z,6.07
2023-02-27T14:49:18.812Z,4.72
2023-02-27T14:54:25.887Z,5.70
2023-02-27T15:00:03.215Z,5.50
2023-02-27T15:05:10.527Z,5.60
2023-02-27T15:10:26.388Z,6.55
2023-02-27T15:15:27.955Z,5.90
2023-02-27T15:20:32.849Z,5.32
2023-02-27T15:25:37.808Z,5.90
2023-02-27T15:30:39.344Z,6.38
2023-02-27T15:35:44.100Z,6.10
2023-02-27T15:40:45.637Z,5.85
2023-02-27T15:45:47.911Z,7.80
2023-02-27T15:50:53.873Z,5.85
2023-02-27T15:55:58.638Z,5.00
2023-02-27T16:01:07.679Z,6.78
2023-02-27T16:06:12.855Z,4.75
2023-02-27T16:11:43.468Z,5.22
2023-02-27T16:16:54.900Z,5.45
2023-02-27T16:22:13.753Z,6.25
2023-02-27T16:27:26.803Z,5.35
2023-02-27T16:32:35.006Z,7.68
2023-02-27T16:37:38.762Z,4.82
2023-02-27T16:42:40.599Z,5.55
2023-02-27T16:47:42.145Z,4.57
2023-02-27T16:52:43.655Z,4.30
2023-02-27T16:57:45.201Z,5.25
2023-02-27T17:02:46.685Z,4.72
2023-02-27T17:07:48.203Z,4.53
2023-02-27T17:12:49.794Z,6.68
2023-02-27T17:17:51.298Z,5.72
2023-02-27T17:22:52.897Z,5.68
2023-02-27T17:27:54.439Z,4.70
2023-02-27T17:32:56.558Z,4.55
2023-02-27T17:37:59.427Z,7.32
2023-02-27T17:43:00.937Z,5.05
2023-02-27T17:48:02.421Z,5.38
2023-02-27T17:53:03.904Z,5.22
2023-02-27T17:58:05.537Z,5.18
2023-02-27T18:03:07.004Z,6.65
2023-02-27T18:08:08.460Z,6.15
2023-02-27T18:13:09.950Z,7.90
2023-02-27T18:18:12.160Z,6.35
2023-02-27T18:23:14.570Z,4.68
2023-02-27T18:28:16.099Z,5.07
2023-02-27T18:33:17.689Z,7.65
2023-02-27T18:38:19.178Z,4.97
2023-02-27T18:43:20.702Z,5.10
2023-02-27T18:48:22.235Z,5.20
2023-02-27T18:53:23.731Z,5.82
2023-02-27T18:58:25.302Z,5.40
2023-02-27T19:03:27.781Z,4.75
2023-02-27T19:08:29.409Z,8.68
2023-02-27T19:13:30.855Z,6.78
2023-02-27T19:18:32.365Z,5.72
2023-02-27T19:23:33.965Z,6.40
2023-02-27T19:28:35.460Z,5.68
2023-02-27T19:33:37.132Z,5.22
2023-02-27T19:38:38.755Z,5.53
2023-02-27T19:43:41.267Z,5.40
2023-02-27T19:48:42.790Z,6.78
2023-02-27T19:53:46.214Z,6.00
2023-02-27T19:58:48.215Z,5.28
2023-02-27T20:03:49.739Z,5.07
2023-02-27T20:08:52.294Z,5.68
2023-02-27T20:13:53.746Z,6.38
2023-02-27T20:18:55.447Z,6.28
2023-02-27T20:23:58.016Z,6.93
2023-02-27T20:29:02.160Z,5.38
2023-02-27T20:34:04.671Z,6.70
2023-02-27T20:39:06.888Z,7.80
2023-02-27T20:44:08.894Z,5.68
2023-02-27T20:49:12.591Z,6.72
2023-02-27T20:54:16.079Z,5.65
2023-02-27T20:59:19.175Z,5.78
2023-02-27T21:04:26.522Z,7.28
2023-02-27T21:09:28.063Z,6.57
2023-02-27T21:14:29.558Z,6.82
2023-02-27T21:19:31.130Z,6.35
2023-02-27T21:24:32.595Z,6.03
2023-02-27T21:29:34.074Z,7.28
2023-02-27T21:34:35.588Z,6.13
2023-02-27T21:39:37.117Z,6.50
2023-02-27T21:44:38.663Z,6.05
2023-02-27T21:49:40.142Z,7.45
2023-02-27T21:54:41.659Z,6.30
2023-02-27T21:59:43.145Z,6.95
2023-02-27T22:04:44.627Z,6.05
2023-02-27T22:09:46.243Z,6.82
2023-02-27T22:14:48.480Z,7.20
2023-02-27T22:19:49.974Z,6.00
2023-02-27T22:24:51.420Z,7.32
2023-02-27T22:29:52.891Z,6.82
2023-02-27T22:34:58.348Z,7.28
2023-02-27T22:39:59.875Z,9.07
2023-02-27T22:45:01.362Z,12.60
2023-02-27T22:50:04.423Z,7.47
2023-02-27T22:55:06.622Z,7.50
2023-02-27T23:00:08.801Z,6.13
2023-02-27T23:05:10.677Z,9.90
2023-02-27T23:10:12.167Z,8.60
2023-02-27T23:15:13.766Z,7.68
2023-02-27T23:20:15.254Z,8.55
2023-02-27T23:25:16.744Z,7.22
2023-02-27T23:30:18.332Z,7.00
2023-02-27T23:35:19.801Z,7.13
2023-02-27T23:40:22.509Z,7.75
2023-02-27T23:45:24.087Z,7.28
2023-02-27T23:50:28.834Z,7.32
2023-02-27T23:55:32.648Z,10.63
